createdAt,value
2023-05-19T00:00:15.418Z,54.59
2023-05-19T00:02:47.956Z,54.25
2023-05-19T00:05:20.370Z,54.54
2023-05-19T00:07:53.856Z,54.27
2023-05-19T00:10:31.567Z,54.60
2023-05-19T00:13:04.439Z,54.06
2023-05-19T00:15:36.768Z,54.32
2023-05-19T00:18:09.089Z,54.50
2023-05-19T00:20:41.409Z,54.52
2023-05-19T00:23:13.421Z,54.74
2023-05-19T00:25:45.640Z,54.67
2023-05-19T00:28:17.658Z,54.27
2023-05-19T00:30:50.939Z,54.76
2023-05-19T00:33:22.977Z,54.30
2023-05-19T00:35:55.187Z,54.34
2023-05-19T00:38:27.264Z,54.35
2023-05-19T00:41:00.203Z,54.70
2023-05-19T00:43:35.724Z,55.10
2023-05-19T00:46:07.934Z,54.84
2023-05-19T00:48:40.391Z,54.60
2023-05-19T00:51:14.875Z,54.72
2023-05-19T00:53:49.478Z,54.66
2023-05-19T00:56:22.575Z,54.81
2023-05-19T00:58:54.917Z,54.91
2023-05-19T01:01:28.394Z,54.36
2023-05-19T01:04:01.434Z,54.98
2023-05-19T01:06:35.043Z,54.53
2023-05-19T01:09:07.720Z,55.20
2023-05-19T01:11:40.036Z,55.16
2023-05-19T01:14:12.698Z,54.70
2023-05-19T01:16:58.519Z,55.08
2023-05-19T01:19:49.611Z,54.78
2023-05-19T01:22:32.441Z,54.84
2023-05-19T01:25:21.549Z,54.88
2023-05-19T01:28:16.101Z,55.03
2023-05-19T01:30:52.689Z,55.10
2023-05-19T01:33:25.237Z,55.27
2023-05-19T01:35:59.574Z,55.19
2023-05-19T01:38:33.999Z,55.32
2023-05-19T01:41:08.178Z,55.19
2023-05-19T01:43:40.730Z,54.91
2023-05-19T01:46:13.900Z,54.76
2023-05-19T01:48:47.889Z,55.50
2023-05-19T01:51:19.990Z,55.45
2023-05-19T01:53:52.119Z,55.00
2023-05-19T01:56:37.249Z,55.38
2023-05-19T01:59:16.729Z,55.15
2023-05-19T02:01:53.365Z,55.34
2023-05-19T02:04:32.426Z,55.26
2023-05-19T02:07:15.826Z,55.34
2023-05-19T02:09:56.992Z,55.49
2023-05-19T02:12:31.735Z,55.43
2023-05-19T02:15:06.344Z,55.53
2023-05-19T02:17:47.787Z,54.91
2023-05-19T02:20:22.349Z,55.30
2023-05-19T02:22:54.553Z,55.17
2023-05-19T02:25:27.246Z,55.29
2023-05-19T02:27:59.565Z,54.97
2023-05-19T02:30:34.926Z,55.09
2023-05-19T02:33:07.754Z,55.58
2023-05-19T02:35:41.007Z,55.40
2023-05-19T02:38:13.417Z,55.24
2023-05-19T02:40:45.552Z,55.26
2023-05-19T02:43:17.597Z,55.29
2023-05-19T02:45:50.163Z,55.10
2023-05-19T02:48:22.272Z,55.66
2023-05-19T02:50:54.504Z,55.44
2023-05-19T02:53:26.785Z,55.09
2023-05-19T02:55:59.966Z,55.04
2023-05-19T02:58:32.177Z,55.29
2023-05-19T03:01:04.411Z,55.11
2023-05-19T03:03:36.911Z,55.78
2023-05-19T03:06:09.389Z,55.53
2023-05-19T03:08:42.445Z,55.87
2023-05-19T03:11:15.597Z,55.54
2023-05-19T03:13:47.691Z,55.17
2023-05-19T03:16:20.215Z,55.19
2023-05-19T03:18:52.478Z,55.59
2023-05-19T03:21:24.741Z,55.75
2023-05-19T03:23:56.927Z,55.58
2023-05-19T03:26:29.401Z,55.16
2023-05-19T03:29:02.306Z,55.15
2023-05-19T03:31:37.391Z,55.91
2023-05-19T03:34:11.130Z,55.44
2023-05-19T03:36:45.135Z,55.45
2023-05-19T03:39:20.890Z,55.63
2023-05-19T03:41:54.252Z,55.62
2023-05-19T03:44:26.315Z,55.79
2023-05-19T03:46:58.509Z,55.57
2023-05-19T03:49:46.304Z,55.25
2023-05-19T03:52:48.941Z,55.58
2023-05-19T03:55:34.549Z,55.63
2023-05-19T03:58:06.678Z,55.47
2023-05-19T04:00:38.802Z,55.22
2023-05-19T04:03:11.184Z,55.71
2023-05-19T04:05:43.358Z,55.49
2023-05-19T04:08:15.786Z,55.30
2023-05-19T04:10:47.901Z,55.58
2023-05-19T04:13:21.333Z,55.45
2023-05-19T04:15:53.611Z,55.13
2023-05-19T04:18:28.249Z,55.57
2023-05-19T04:21:01.886Z,55.25
2023-05-19T04:23:34.076Z,55.30
2023-05-19T04:26:06.761Z,55.66
2023-05-19T04:28:42.294Z,55.27
2023-05-19T04:31:15.198Z,55.46
2023-05-19T04:33:48.295Z,55.31
2023-05-19T04:36:21.808Z,55.62
2023-05-19T04:39:05.686Z,55.33
2023-05-19T04:41:40.583Z,55.56
2023-05-19T04:44:18.098Z,55.79
2023-05-19T04:46:54.460Z,55.74
2023-05-19T04:49:28.158Z,55.77
2023-05-19T04:52:00.479Z,55.53
2023-05-19T04:54:36.230Z,55.49
2023-05-19T04:57:08.489Z,55.51
2023-05-19T04:59:43.901Z,55.80
2023-05-19T05:02:16.284Z,55.25
2023-05-19T05:04:49.106Z,55.55
2023-05-19T05:07:22.771Z,55.70
2023-05-19T05:09:57.372Z,55.77
2023-05-19T05:12:29.932Z,55.92
2023-05-19T05:15:02.739Z,55.93
2023-05-19T05:17:35.583Z,55.53
2023-05-19T05:20:10.029Z,55.69
2023-05-19T05:22:42.448Z,55.91
2023-05-19T05:25:16.380Z,55.55
2023-05-19T05:27:48.863Z,55.42
2023-05-19T05:30:21.007Z,55.78
2023-05-19T05:32:53.492Z,56.17
2023-05-19T05:35:39.070Z,55.40
2023-05-19T05:38:12.704Z,55.33
2023-05-19T05:40:45.757Z,55.98
2023-05-19T05:43:18.018Z,56.11
2023-05-19T05:45:56.506Z,55.95
2023-05-19T05:48:29.314Z,55.57
2023-05-19T05:51:01.716Z,55.54
2023-05-19T05:53:41.757Z,55.73
2023-05-19T05:56:14.824Z,55.91
2023-05-19T05:58:53.825Z,56.13
2023-05-19T06:01:26.566Z,55.64
2023-05-19T06:03:59.278Z,55.61
2023-05-19T06:06:32.724Z,56.12
2023-05-19T06:09:07.211Z,55.89
2023-05-19T06:11:39.524Z,56.33
2023-05-19T06:14:12.523Z,55.43
2023-05-19T06:17:07.701Z,55.92
2023-05-19T06:19:40.198Z,55.97
2023-05-19T06:22:12.617Z,55.45
2023-05-19T06:24:44.787Z,55.54
2023-05-19T06:27:17.093Z,55.47
2023-05-19T06:29:49.446Z,55.84
2023-05-19T06:32:22.387Z,55.56
2023-05-19T06:34:54.704Z,55.63
2023-05-19T06:37:27.083Z,55.73
2023-05-19T06:40:00.078Z,55.78
2023-05-19T06:42:32.758Z,56.34
2023-05-19T06:45:21.948Z,55.27
2023-05-19T06:47:58.382Z,55.91
2023-05-19T06:50:31.178Z,55.61
2023-05-19T06:53:03.380Z,55.41
2023-05-19T06:55:43.958Z,55.62
2023-05-19T06:58:26.842Z,55.85
2023-05-19T07:00:59.050Z,56.08
2023-05-19T07:03:36.101Z,55.99
2023-05-19T07:06:09.060Z,55.68
2023-05-19T07:08:41.804Z,56.08
2023-05-19T07:11:14.546Z,55.67
2023-05-19T07:13:48.160Z,55.45
2023-05-19T07:16:26.374Z,55.68
2023-05-19T07:19:00.520Z,55.52
2023-05-19T07:21:32.689Z,55.84
2023-05-19T07:24:06.036Z,55.27
2023-05-19T07:26:38.537Z,55.60
2023-05-19T07:29:10.656Z,55.87
2023-05-19T07:31:42.870Z,55.35
2023-05-19T07:34:15.091Z,55.84
2023-05-19T07:36:47.269Z,55.59
2023-05-19T07:39:19.700Z,55.89
2023-05-19T07:41:55.740Z,55.87
2023-05-19T07:44:27.951Z,55.57
2023-05-19T07:47:00.861Z,55.78
2023-05-19T07:49:33.060Z,56.08
2023-05-19T07:52:05.873Z,55.70
2023-05-19T07:54:38.120Z,55.71
2023-05-19T07:57:10.194Z,56.26
2023-05-19T07:59:42.398Z,55.92
2023-05-19T08:02:14.528Z,55.50
2023-05-19T08:04:46.775Z,56.02
2023-05-19T08:07:18.924Z,56.05
2023-05-19T08:09:51.534Z,56.33
2023-05-19T08:12:24.369Z,56.27
2023-05-19T08:14:57.794Z,55.97
2023-05-19T08:17:31.213Z,56.25
2023-05-19T08:20:05.372Z,55.89
2023-05-19T08:22:37.696Z,56.36
2023-05-19T08:25:10.461Z,56.10
2023-05-19T08:27:42.591Z,55.66
2023-05-19T08:30:16.108Z,55.68
2023-05-19T08:32:48.838Z,55.68
2023-05-19T08:35:22.687Z,56.00
2023-05-19T08:37:54.863Z,56.22
2023-05-19T08:40:30.643Z,56.07
2023-05-19T08:43:03.645Z,56.08
2023-05-19T08:45:35.910Z,56.23
2023-05-19T08:48:08.316Z,55.49
2023-05-19T08:50:42.660Z,56.40
2023-05-19T08:53:33.743Z,55.47
2023-05-19T08:56:10.781Z,55.93
2023-05-19T08:58:44.691Z,55.77
2023-05-19T09:01:17.282Z,55.84
2023-05-19T09:03:50.141Z,55.93
2023-05-19T09:06:23.093Z,55.86
2023-05-19T09:08:55.438Z,56.19
2023-05-19T09:11:27.637Z,55.85
2023-05-19T09:13:59.770Z,55.56
2023-05-19T09:16:34.153Z,55.85
2023-05-19T09:19:13.496Z,55.47
2023-05-19T09:21:45.860Z,55.93
2023-05-19T09:24:18.351Z,55.46
2023-05-19T09:26:50.623Z,56.20
2023-05-19T09:29:22.840Z,56.19
2023-05-19T09:32:00.462Z,55.88
2023-05-19T09:34:33.873Z,55.60
2023-05-19T09:37:06.242Z,55.42
2023-05-19T09:39:38.757Z,55.40
2023-05-19T09:42:10.932Z,55.58
2023-05-19T09:44:43.220Z,55.43
2023-05-19T09:47:16.531Z,55.48
2023-05-19T09:49:49.218Z,55.67
2023-05-19T09:52:22.530Z,55.43
2023-05-19T09:54:56.213Z,55.69
2023-05-19T09:57:33.557Z,55.84
2023-05-19T10:00:14.504Z,55.68
2023-05-19T10:02:47.699Z,55.68
2023-05-19T10:05:21.017Z,55.76
2023-05-19T10:07:54.665Z,55.79
2023-05-19T10:10:27.455Z,55.55
2023-05-19T10:13:00.246Z,55.45
2023-05-19T10:15:36.094Z,55.56
2023-05-19T10:18:11.378Z,55.81
2023-05-19T10:20:44.013Z,55.78
2023-05-19T10:23:16.372Z,55.60
2023-05-19T10:25:50.010Z,55.44
2023-05-19T10:28:25.628Z,55.56
2023-05-19T10:31:00.508Z,55.71
2023-05-19T10:33:51.569Z,55.92
2023-05-19T10:36:38.084Z,55.52
2023-05-19T10:39:17.160Z,55.99
2023-05-19T10:41:55.514Z,55.75
2023-05-19T10:44:41.029Z,55.87
2023-05-19T10:47:13.405Z,56.23
2023-05-19T10:49:45.936Z,55.45
2023-05-19T10:52:23.357Z,56.23
2023-05-19T10:54:55.589Z,56.12
2023-05-19T10:57:28.357Z,56.01
2023-05-19T11:00:12.134Z,55.71
2023-05-19T11:02:44.591Z,56.11
2023-05-19T11:05:20.464Z,55.62
2023-05-19T11:08:09.200Z,56.12
2023-05-19T11:10:43.962Z,55.99
2023-05-19T11:13:20.074Z,56.17
2023-05-19T11:15:52.131Z,56.34
2023-05-19T11:18:24.570Z,55.64
2023-05-19T11:21:02.480Z,55.85
2023-05-19T11:23:37.868Z,55.90
2023-05-19T11:26:10.096Z,56.02
2023-05-19T11:28:43.504Z,56.22
2023-05-19T11:31:16.061Z,56.35
2023-05-19T11:33:48.424Z,56.36
2023-05-19T11:36:21.755Z,56.64
2023-05-19T11:38:54.082Z,56.07
2023-05-19T11:41:28.419Z,56.40
2023-05-19T11:44:00.639Z,55.96
2023-05-19T11:46:34.023Z,56.12
2023-05-19T11:49:07.345Z,56.46
2023-05-19T11:51:39.614Z,56.13
2023-05-19T11:54:12.380Z,56.22
2023-05-19T11:56:44.546Z,56.22
2023-05-19T11:59:16.717Z,56.49
2023-05-19T12:01:49.146Z,56.47
2023-05-19T12:04:21.365Z,56.30
2023-05-19T12:06:54.705Z,56.24
2023-05-19T12:09:28.366Z,56.36
2023-05-19T12:12:01.114Z,56.49
2023-05-19T12:14:34.529Z,56.20
2023-05-19T12:17:17.087Z,56.38
2023-05-19T12:19:50.227Z,56.18
2023-05-19T12:22:22.453Z,56.06
2023-05-19T12:24:54.658Z,56.25
2023-05-19T12:27:27.642Z,56.71
2023-05-19T12:30:00.161Z,56.63
2023-05-19T12:32:34.313Z,56.13
2023-05-19T12:35:06.796Z,56.53
2023-05-19T12:37:41.733Z,55.99
2023-05-19T12:40:15.936Z,56.19
2023-05-19T12:42:52.200Z,56.05
2023-05-19T12:45:25.842Z,56.14
2023-05-19T12:47:58.067Z,56.40
2023-05-19T12:50:31.668Z,56.14
2023-05-19T12:53:08.731Z,56.06
2023-05-19T12:55:44.342Z,56.07
2023-05-19T12:58:16.815Z,56.03
2023-05-19T13:00:49.884Z,55.95
2023-05-19T13:03:22.456Z,56.13
2023-05-19T13:05:54.766Z,56.02
2023-05-19T13:08:27.797Z,56.14
2023-05-19T13:10:59.901Z,55.88
2023-05-19T13:13:32.324Z,56.02
2023-05-19T13:16:04.625Z,55.88
2023-05-19T13:18:38.377Z,56.14
2023-05-19T13:21:10.696Z,56.14
2023-05-19T13:23:42.771Z,55.92
2023-05-19T13:26:14.984Z,55.83
2023-05-19T13:28:48.513Z,55.99
2023-05-19T13:31:20.676Z,55.76
2023-05-19T13:33:52.959Z,55.97
2023-05-19T13:36:25.567Z,55.90
2023-05-19T13:38:57.688Z,56.05
2023-05-19T13:41:29.816Z,56.07
2023-05-19T13:44:02.410Z,55.64
2023-05-19T13:49:26.788Z,55.86
2023-05-19T13:51:33.014Z,55.70
2023-05-19T13:51:59.925Z,55.73
2023-05-19T13:54:32.283Z,56.00
2023-05-19T13:57:04.788Z,55.83
2023-05-19T13:59:43.077Z,56.09
2023-05-19T14:02:25.457Z,55.83
2023-05-19T14:04:57.678Z,56.00
2023-05-19T14:07:30.526Z,56.02
2023-05-19T14:10:04.085Z,55.97
2023-05-19T14:12:49.472Z,56.08
2023-05-19T14:15:28.738Z,56.05
2023-05-19T14:18:00.893Z,55.92
2023-05-19T14:20:33.366Z,55.84
2023-05-19T14:23:05.737Z,56.07
2023-05-19T14:25:37.858Z,55.83
2023-05-19T14:28:11.027Z,55.84
2023-05-19T14:30:43.221Z,55.90
2023-05-19T14:33:15.504Z,55.88
2023-05-19T14:35:47.649Z,55.67
2023-05-19T14:38:19.770Z,55.78
2023-05-19T14:40:52.124Z,55.90
2023-05-19T14:43:24.466Z,55.85
2023-05-19T14:45:56.793Z,56.10
2023-05-19T14:48:28.940Z,55.91
2023-05-19T14:51:01.279Z,55.71
2023-05-19T14:53:33.469Z,55.87
2023-05-19T14:56:06.550Z,55.95
2023-05-19T14:58:38.730Z,56.07
2023-05-19T15:01:10.988Z,55.85
2023-05-19T15:03:43.219Z,56.17
2023-05-19T15:06:15.436Z,56.09
2023-05-19T15:08:47.751Z,55.91
2023-05-19T15:11:19.870Z,55.67
2023-05-19T15:13:52.066Z,55.89
2023-05-19T15:16:24.141Z,55.86
2023-05-19T15:18:56.876Z,55.92
2023-05-19T15:21:29.158Z,55.86
2023-05-19T15:24:01.426Z,55.80
2023-05-19T15:26:33.897Z,55.79
2023-05-19T15:29:06.137Z,55.59
2023-05-19T15:31:38.736Z,55.56
2023-05-19T15:34:11.032Z,55.67
2023-05-19T15:36:43.257Z,55.39
2023-05-19T15:39:15.420Z,55.70
2023-05-19T15:41:48.118Z,55.36
2023-05-19T15:44:20.480Z,55.00
2023-05-19T15:46:52.656Z,55.31
2023-05-19T15:49:25.300Z,55.15
2023-05-19T15:51:57.526Z,55.09
2023-05-19T15:54:30.420Z,54.62
2023-05-19T15:57:02.567Z,54.58
2023-05-19T15:59:34.699Z,54.72
2023-05-19T16:02:07.185Z,54.53
2023-05-19T16:04:39.394Z,54.79
2023-05-19T16:07:11.536Z,54.68
2023-05-19T16:09:43.703Z,55.00
2023-05-19T16:12:15.921Z,54.98
2023-05-19T16:14:48.057Z,54.66
2023-05-19T16:17:20.264Z,54.68
2023-05-19T16:19:52.361Z,54.58
2023-05-19T16:22:25.498Z,54.87
2023-05-19T16:24:57.629Z,54.94
2023-05-19T16:27:29.748Z,54.65
2023-05-19T16:30:03.252Z,54.62
2023-05-19T16:32:35.525Z,54.77
2023-05-19T16:35:08.417Z,54.71
2023-05-19T16:37:43.438Z,54.57
2023-05-19T16:40:15.800Z,54.57
2023-05-19T16:42:48.020Z,54.36
2023-05-19T16:45:20.578Z,54.48
2023-05-19T16:47:52.746Z,54.55
2023-05-19T16:50:24.908Z,54.65
2023-05-19T16:52:57.031Z,54.46
2023-05-19T16:55:29.249Z,54.37
2023-05-19T16:58:01.581Z,54.48
2023-05-19T17:00:34.066Z,54.50
2023-05-19T17:03:06.684Z,54.64
2023-05-19T17:05:41.934Z,54.50
2023-05-19T17:08:14.213Z,54.53
2023-05-19T17:10:47.684Z,54.53
2023-05-19T17:13:19.794Z,54.49
2023-05-19T17:15:54.902Z,54.51
2023-05-19T17:18:26.996Z,54.42
2023-05-19T17:21:03.439Z,54.30
2023-05-19T17:23:35.802Z,54.25
2023-05-19T17:26:07.921Z,54.07
2023-05-19T17:28:40.015Z,53.95
2023-05-19T17:31:13.004Z,54.07
2023-05-19T17:33:45.165Z,54.17
2023-05-19T17:36:17.222Z,54.08
2023-05-19T17:38:49.324Z,54.17
2023-05-19T17:41:22.003Z,53.78
2023-05-19T17:43:54.219Z,54.04
2023-05-19T17:46:26.367Z,53.71
2023-05-19T17:48:59.089Z,54.00
2023-05-19T17:51:32.796Z,53.86
2023-05-19T17:54:05.498Z,54.08
2023-05-19T17:56:40.747Z,54.00
2023-05-19T17:59:12.943Z,53.80
2023-05-19T18:01:45.790Z,54.03
2023-05-19T18:04:18.197Z,54.12
2023-05-19T18:06:52.882Z,54.25
2023-05-19T18:09:28.518Z,54.21
2023-05-19T18:12:02.491Z,54.27
2023-05-19T18:14:35.370Z,54.05
2023-05-19T18:17:07.676Z,54.28
2023-05-19T18:19:39.820Z,54.35
2023-05-19T18:22:14.890Z,54.04
2023-05-19T18:24:47.116Z,54.05
2023-05-19T18:27:19.504Z,54.05
2023-05-19T18:29:51.643Z,54.37
2023-05-19T18:32:23.775Z,54.34
2023-05-19T18:34:56.217Z,54.09
2023-05-19T18:37:28.691Z,54.23
2023-05-19T18:40:01.297Z,54.27
2023-05-19T18:42:34.660Z,54.20
2023-05-19T18:45:07.133Z,54.27
2023-05-19T18:47:40.357Z,54.20
2023-05-19T18:50:13.204Z,54.26
2023-05-19T18:52:45.389Z,54.20
2023-05-19T18:55:17.728Z,54.31
2023-05-19T18:57:49.841Z,54.25
2023-05-19T19:00:22.204Z,54.17
2023-05-19T19:02:54.760Z,54.43
2023-05-19T19:05:27.273Z,54.48
2023-05-19T19:07:59.507Z,54.59
2023-05-19T19:10:34.794Z,54.25
2023-05-19T19:13:07.473Z,54.48
2023-05-19T19:15:39.892Z,54.73
2023-05-19T19:18:12.810Z,54.87
2023-05-19T19:20:45.521Z,54.70
2023-05-19T19:23:18.106Z,54.79
2023-05-19T19:25:51.003Z,54.78
2023-05-19T19:28:23.709Z,55.02
2023-05-19T19:30:56.308Z,54.93
2023-05-19T19:33:28.662Z,55.12
2023-05-19T19:36:01.478Z,55.09
2023-05-19T19:38:33.719Z,55.10
2023-05-19T19:41:06.092Z,55.09
2023-05-19T19:43:38.329Z,55.07
2023-05-19T19:46:10.571Z,55.22
2023-05-19T19:48:44.438Z,55.11
2023-05-19T19:51:16.749Z,55.27
2023-05-19T19:53:48.877Z,55.26
2023-05-19T19:56:23.703Z,55.40
2023-05-19T19:58:59.051Z,55.23
2023-05-19T20:01:31.753Z,55.33
2023-05-19T20:04:04.231Z,55.47
2023-05-19T20:06:37.494Z,55.49
2023-05-19T20:09:09.726Z,55.65
2023-05-19T20:11:42.186Z,55.64
2023-05-19T20:14:14.338Z,55.44
2023-05-19T20:16:47.263Z,55.66
2023-05-19T20:19:19.449Z,55.63
2023-05-19T20:21:51.784Z,55.83
2023-05-19T20:24:24.034Z,55.93
2023-05-19T20:26:56.776Z,55.77
2023-05-19T20:29:29.929Z,55.98
2023-05-19T20:32:02.084Z,56.05
2023-05-19T20:34:34.615Z,55.88
2023-05-19T20:37:07.435Z,56.03
2023-05-19T20:39:39.562Z,55.92
2023-05-19T20:42:11.768Z,56.08
2023-05-19T20:44:44.093Z,55.99
2023-05-19T20:47:16.442Z,55.95
2023-05-19T20:49:48.623Z,56.24
2023-05-19T20:52:21.008Z,56.24
2023-05-19T20:54:53.893Z,56.13
2023-05-19T20:57:27.675Z,55.99
2023-05-19T21:00:01.164Z,56.20
2023-05-19T21:02:33.332Z,55.92
2023-05-19T21:05:05.840Z,55.76
2023-05-19T21:07:38.016Z,56.34
2023-05-19T21:10:10.480Z,56.12
2023-05-19T21:12:42.813Z,55.78
2023-05-19T21:15:15.454Z,56.06
2023-05-19T21:17:47.864Z,55.87
2023-05-19T21:20:20.107Z,56.25
2023-05-19T21:22:52.242Z,55.73
2023-05-19T21:25:25.041Z,55.91
2023-05-19T21:27:58.520Z,56.12
2023-05-19T21:30:30.774Z,55.86
2023-05-19T21:33:02.952Z,56.15
2023-05-19T21:35:35.444Z,55.52
2023-05-19T21:38:22.028Z,55.78
2023-05-19T21:40:56.517Z,55.65
2023-05-19T21:43:32.146Z,55.98
2023-05-19T21:46:08.912Z,55.81
2023-05-19T21:48:41.718Z,55.94
2023-05-19T21:51:14.354Z,55.62
2023-05-19T21:53:46.445Z,55.82
2023-05-19T21:56:19.581Z,55.79
2023-05-19T21:58:52.228Z,55.61
2023-05-19T22:01:24.950Z,55.75
2023-05-19T22:03:57.793Z,55.55
2023-05-19T22:06:31.729Z,55.82
2023-05-19T22:09:04.585Z,55.72
2023-05-19T22:11:37.128Z,55.87
2023-05-19T22:14:09.841Z,56.06
2023-05-19T22:16:42.830Z,55.73
2023-05-19T22:19:15.870Z,56.09
2023-05-19T22:21:50.358Z,56.13
2023-05-19T22:24:24.809Z,56.16
2023-05-19T22:26:57.087Z,56.25
2023-05-19T22:29:29.816Z,55.93
2023-05-19T22:32:02.726Z,55.85
2023-05-19T22:34:35.378Z,55.47
2023-05-19T22:37:08.460Z,56.27
2023-05-19T22:39:41.061Z,56.25
2023-05-19T22:42:13.906Z,55.87
2023-05-19T22:44:46.550Z,56.21
2023-05-19T22:47:18.872Z,55.86
2023-05-19T22:49:51.809Z,56.21
2023-05-19T22:52:24.455Z,56.31
2023-05-19T22:54:57.296Z,55.78
2023-05-19T22:57:30.205Z,56.39
2023-05-19T23:00:03.373Z,55.92
2023-05-19T23:02:37.307Z,55.92
2023-05-19T23:05:09.517Z,56.02
2023-05-19T23:07:41.688Z,56.20
2023-05-19T23:10:13.910Z,55.81
2023-05-19T23:12:47.280Z,55.86
2023-05-19T23:15:19.567Z,55.93
2023-05-19T23:17:51.833Z,56.06
2023-05-19T23:20:24.040Z,55.94
2023-05-19T23:22:56.187Z,56.41
2023-05-19T23:25:28.397Z,56.16
2023-05-19T23:28:00.584Z,56.25
2023-05-19T23:30:33.178Z,56.34
2023-05-19T23:33:05.505Z,56.40
2023-05-19T23:35:39.564Z,56.42
2023-05-19T23:38:11.949Z,56.38
2023-05-19T23:40:44.133Z,56.52
2023-05-19T23:43:16.241Z,55.94
2023-05-19T23:45:48.447Z,56.61
2023-05-19T23:48:21.212Z,56.60
2023-05-19T23:50:53.427Z,56.42
2023-05-19T23:53:25.730Z,56.38
2023-05-19T23:55:58.743Z,56.46
2023-05-19T23:58:31.093Z,56.47
